createdAt,value
2022-12-06T00:00:28.042Z,18.80
2022-12-06T00:02:56.522Z,18.17
2022-12-06T00:05:25.042Z,17.37
2022-12-06T00:07:53.521Z,19.53
2022-12-06T00:10:21.995Z,19.77
2022-12-06T00:12:51.827Z,19.10
2022-12-06T00:15:20.451Z,19.43
2022-12-06T00:17:49.033Z,18.67
2022-12-06T00:20:17.549Z,19.30
2022-12-06T00:22:46.202Z,18.30
2022-12-06T00:25:14.626Z,18.03
2022-12-06T00:27:43.054Z,19.83
2022-12-06T00:30:13.271Z,19.13
2022-12-06T00:32:41.713Z,19.87
2022-12-06T00:35:10.179Z,19.83
2022-12-06T00:37:38.628Z,19.53
2022-12-06T00:40:07.665Z,18.83
2022-12-06T00:42:36.161Z,19.50
2022-12-06T00:45:04.601Z,18.93
2022-12-06T00:47:34.432Z,17.93
2022-12-06T00:50:03.210Z,19.33
2022-12-06T00:52:31.666Z,18.07
2022-12-06T00:55:00.109Z,18.63
2022-12-06T00:57:28.554Z,18.63
2022-12-06T00:59:57.150Z,19.30
2022-12-06T01:02:25.766Z,17.40
2022-12-06T01:04:55.572Z,18.80
2022-12-06T01:07:24.005Z,18.43
2022-12-06T01:09:52.429Z,18.37
2022-12-06T01:12:20.768Z,18.57
2022-12-06T01:14:49.217Z,18.53
2022-12-06T01:17:17.565Z,17.50
2022-12-06T01:19:45.879Z,18.47
2022-12-06T01:22:15.628Z,16.93
2022-12-06T01:24:43.964Z,18.97
2022-12-06T01:27:12.293Z,18.83
2022-12-06T01:29:40.831Z,18.20
2022-12-06T01:32:09.188Z,18.47
2022-12-06T01:34:37.682Z,18.27
2022-12-06T01:37:06.398Z,17.20
2022-12-06T01:39:36.104Z,17.33
2022-12-06T01:42:04.784Z,19.33
2022-12-06T01:44:43.702Z,17.00
2022-12-06T01:47:22.550Z,18.10
2022-12-06T01:49:52.949Z,17.70
2022-12-06T01:52:22.904Z,17.47
2022-12-06T01:54:52.600Z,18.67
2022-12-06T01:57:21.074Z,18.50
2022-12-06T01:59:49.426Z,16.63
2022-12-06T02:02:17.959Z,17.20
2022-12-06T02:04:46.512Z,18.50
2022-12-06T02:07:15.310Z,17.83
2022-12-06T02:09:44.572Z,17.63
2022-12-06T02:12:15.469Z,18.50
2022-12-06T02:14:44.896Z,18.80
2022-12-06T02:17:18.420Z,18.17
2022-12-06T02:20:00.062Z,18.77
2022-12-06T02:22:32.200Z,17.67
2022-12-06T02:25:04.061Z,17.67
2022-12-06T02:27:39.606Z,19.60
2022-12-06T02:30:13.527Z,20.10
2022-12-06T02:32:53.254Z,18.37
2022-12-06T02:35:27.048Z,18.93
2022-12-06T02:37:58.190Z,18.43
2022-12-06T02:40:29.484Z,18.13
2022-12-06T02:43:00.452Z,18.40
2022-12-06T02:45:29.845Z,18.40
2022-12-06T02:48:01.847Z,20.60
2022-12-06T02:50:32.102Z,20.13
2022-12-06T02:53:01.813Z,22.27
2022-12-06T02:55:31.262Z,19.37
2022-12-06T02:57:59.632Z,19.67
2022-12-06T03:00:35.929Z,19.10
2022-12-06T03:03:13.454Z,19.37
2022-12-06T03:05:43.948Z,20.90
2022-12-06T03:08:16.811Z,20.73
2022-12-06T03:10:48.738Z,20.55
2022-12-06T03:13:18.547Z,18.98
2022-12-06T03:15:50.280Z,18.43
2022-12-06T03:18:23.949Z,20.03
2022-12-06T03:20:54.947Z,19.02
2022-12-06T03:23:26.271Z,20.37
2022-12-06T03:25:57.059Z,19.87
2022-12-06T03:28:26.005Z,21.13
2022-12-06T03:30:55.115Z,19.93
2022-12-06T03:33:25.540Z,21.60
2022-12-06T03:35:54.719Z,20.37
2022-12-06T03:38:26.707Z,19.33
2022-12-06T03:40:55.970Z,20.93
2022-12-06T03:43:24.548Z,20.27
2022-12-06T03:45:57.235Z,20.30
2022-12-06T03:48:29.114Z,21.00
2022-12-06T03:51:00.139Z,21.75
2022-12-06T03:53:28.516Z,20.83
2022-12-06T03:55:56.872Z,20.37
2022-12-06T03:58:25.257Z,21.98
2022-12-06T04:00:53.568Z,20.33
2022-12-06T04:03:22.036Z,20.63
2022-12-06T04:05:51.764Z,19.50
2022-12-06T04:08:20.240Z,19.85
2022-12-06T04:10:48.652Z,19.60
2022-12-06T04:13:19.796Z,19.58
2022-12-06T04:15:49.281Z,20.43
2022-12-06T04:18:18.698Z,18.88
2022-12-06T04:21:08.357Z,20.35
2022-12-06T04:23:38.783Z,20.30
2022-12-06T04:26:07.839Z,20.73
2022-12-06T04:28:53.612Z,20.93
2022-12-06T04:31:39.859Z,21.83
2022-12-06T04:34:25.731Z,19.58
2022-12-06T04:37:11.707Z,21.13
2022-12-06T04:39:41.399Z,19.88
2022-12-06T04:42:27.358Z,20.17
2022-12-06T04:44:55.671Z,20.37
2022-12-06T04:47:24.044Z,21.73
2022-12-06T04:49:52.556Z,19.83
2022-12-06T04:52:21.295Z,20.97
2022-12-06T04:54:51.019Z,20.63
2022-12-06T04:57:19.419Z,22.50
2022-12-06T04:59:49.373Z,21.83
2022-12-06T05:02:17.814Z,24.30
2022-12-06T05:04:46.139Z,22.67
2022-12-06T05:07:14.488Z,24.42
2022-12-06T05:09:42.798Z,22.98
2022-12-06T05:12:12.723Z,23.88
2022-12-06T05:14:41.063Z,22.92
2022-12-06T05:17:09.443Z,22.85
2022-12-06T05:19:37.791Z,22.90
2022-12-06T05:22:06.160Z,22.70
2022-12-06T05:24:34.574Z,23.53
2022-12-06T05:27:03.015Z,23.87
2022-12-06T05:29:32.913Z,22.23
2022-12-06T05:32:01.322Z,23.70
2022-12-06T05:34:29.731Z,22.30
2022-12-06T05:36:58.087Z,23.23
2022-12-06T05:39:26.505Z,22.67
2022-12-06T05:41:54.851Z,22.58
2022-12-06T05:44:23.170Z,23.97
2022-12-06T05:46:52.916Z,23.73
2022-12-06T05:49:21.541Z,23.10
2022-12-06T05:51:50.056Z,22.95
2022-12-06T05:54:18.410Z,21.90
2022-12-06T05:56:46.807Z,21.75
2022-12-06T05:59:15.147Z,22.98
2022-12-06T06:01:43.512Z,23.23
2022-12-06T06:04:13.342Z,20.67
2022-12-06T06:06:41.740Z,22.88
2022-12-06T06:09:10.079Z,21.77
2022-12-06T06:11:38.696Z,22.33
2022-12-06T06:14:07.077Z,20.85
2022-12-06T06:16:35.486Z,23.15
2022-12-06T06:19:04.057Z,23.23
2022-12-06T06:21:33.774Z,24.85
2022-12-06T06:24:02.079Z,23.48
2022-12-06T06:26:30.890Z,21.45
2022-12-06T06:28:59.217Z,23.77
2022-12-06T06:31:27.798Z,24.52
2022-12-06T06:33:56.186Z,21.95
2022-12-06T06:36:24.565Z,20.52
2022-12-06T06:38:54.316Z,21.65
2022-12-06T06:41:22.701Z,21.05
2022-12-06T06:43:51.194Z,21.75
2022-12-06T06:46:19.841Z,20.05
2022-12-06T06:48:48.210Z,19.67
2022-12-06T06:51:16.586Z,22.15
2022-12-06T06:53:44.953Z,20.73
2022-12-06T06:56:14.663Z,20.90
2022-12-06T06:58:43.057Z,21.40
2022-12-06T07:01:17.148Z,22.10
2022-12-06T07:03:45.527Z,22.00
2022-12-06T07:06:13.932Z,21.25
2022-12-06T07:08:42.812Z,22.38
2022-12-06T07:11:12.100Z,21.83
2022-12-06T07:13:46.854Z,21.95
2022-12-06T07:16:18.564Z,20.85
2022-12-06T07:18:47.592Z,20.52
2022-12-06T07:21:17.034Z,20.75
2022-12-06T07:23:45.599Z,21.73
2022-12-06T07:26:14.970Z,20.17
2022-12-06T07:28:45.453Z,19.25
2022-12-06T07:31:15.286Z,20.15
2022-12-06T07:33:44.553Z,20.08
2022-12-06T07:36:14.877Z,19.95
2022-12-06T07:38:43.718Z,20.58
2022-12-06T07:41:26.780Z,20.00
2022-12-06T07:44:14.772Z,20.33
2022-12-06T07:46:43.510Z,19.52
2022-12-06T07:49:11.943Z,20.67
2022-12-06T07:51:40.991Z,20.50
2022-12-06T07:54:09.333Z,19.13
2022-12-06T07:56:38.066Z,20.08
2022-12-06T07:59:07.775Z,20.15
2022-12-06T08:01:36.376Z,19.38
2022-12-06T08:04:05.940Z,21.48
2022-12-06T08:06:34.903Z,19.83
2022-12-06T08:09:03.310Z,19.98
2022-12-06T08:11:31.670Z,15.98
2022-12-06T08:14:00.124Z,15.07
2022-12-06T08:16:29.878Z,12.68
2022-12-06T08:18:58.498Z,12.10
2022-12-06T08:21:27.064Z,11.63
2022-12-06T08:23:58.542Z,12.45
2022-12-06T08:26:27.090Z,11.50
2022-12-06T08:28:55.416Z,12.05
2022-12-06T08:31:25.069Z,12.18
2022-12-06T08:33:54.973Z,12.00
2022-12-06T08:36:24.065Z,11.68
2022-12-06T08:38:52.786Z,11.70
2022-12-06T08:41:39.366Z,11.15
2022-12-06T08:44:07.942Z,10.65
2022-12-06T08:46:36.688Z,11.27
2022-12-06T08:49:06.474Z,10.82
2022-12-06T08:51:35.712Z,11.73
2022-12-06T08:54:04.529Z,10.45
2022-12-06T08:56:32.861Z,10.38
2022-12-06T08:59:01.205Z,10.93
2022-12-06T09:01:37.163Z,9.48
2022-12-06T09:04:08.923Z,10.95
2022-12-06T09:06:38.903Z,10.45
2022-12-06T09:09:07.644Z,11.30
2022-12-06T09:11:36.066Z,10.77
2022-12-06T09:14:04.440Z,10.00
2022-12-06T09:16:33.071Z,10.30
2022-12-06T09:19:01.590Z,10.05
2022-12-06T09:21:32.988Z,9.77
2022-12-06T09:24:01.568Z,11.02
2022-12-06T09:26:30.443Z,8.88
2022-12-06T09:28:59.822Z,9.77
2022-12-06T09:31:28.482Z,9.75
2022-12-06T09:33:57.212Z,9.77
2022-12-06T09:36:26.953Z,9.40
2022-12-06T09:38:59.028Z,9.52
2022-12-06T09:41:39.013Z,10.10
2022-12-06T09:44:15.456Z,8.80
2022-12-06T09:46:50.367Z,10.07
2022-12-06T09:49:27.133Z,10.82
2022-12-06T09:52:04.673Z,10.13
2022-12-06T09:54:49.051Z,10.13
2022-12-06T09:57:23.809Z,9.50
2022-12-06T09:59:58.361Z,8.43
2022-12-06T10:02:34.156Z,8.30
2022-12-06T10:05:21.543Z,8.25
2022-12-06T10:07:53.603Z,8.60
2022-12-06T10:10:28.396Z,7.97
2022-12-06T10:13:01.403Z,8.65
2022-12-06T10:15:35.432Z,8.52
2022-12-06T10:18:11.513Z,8.02
2022-12-06T10:20:42.263Z,8.35
2022-12-06T10:23:15.736Z,8.93
2022-12-06T10:25:51.974Z,8.63
2022-12-06T10:28:23.548Z,9.15
2022-12-06T10:30:53.165Z,9.85
2022-12-06T10:33:23.174Z,10.50
2022-12-06T10:35:52.844Z,11.27
2022-12-06T10:38:24.895Z,11.75
2022-12-06T10:41:01.017Z,11.38
2022-12-06T10:43:32.160Z,12.02
2022-12-06T10:46:22.571Z,12.07
2022-12-06T10:48:57.695Z,12.20
2022-12-06T10:51:27.968Z,10.50
2022-12-06T10:53:59.084Z,10.48
2022-12-06T10:56:30.510Z,9.50
2022-12-06T10:59:00.451Z,8.65
2022-12-06T11:01:30.125Z,11.77
2022-12-06T11:04:01.569Z,8.10
2022-12-06T11:06:34.104Z,8.32
2022-12-06T11:09:06.575Z,8.00
2022-12-06T11:11:38.104Z,6.70
2022-12-06T11:14:07.491Z,7.35
2022-12-06T11:16:38.829Z,7.07
2022-12-06T11:19:17.364Z,5.72
2022-12-06T11:21:50.512Z,5.53
2022-12-06T11:24:22.476Z,6.22
2022-12-06T11:26:55.185Z,7.15
2022-12-06T11:29:23.526Z,6.80
2022-12-06T11:31:53.529Z,7.47
2022-12-06T11:34:24.450Z,8.57
2022-12-06T11:36:59.576Z,9.77
2022-12-06T11:39:28.800Z,9.05
2022-12-06T11:42:00.377Z,10.20
2022-12-06T11:44:29.996Z,9.13
2022-12-06T11:47:00.000Z,8.82
2022-12-06T11:49:30.051Z,7.68
2022-12-06T11:51:59.930Z,7.60
2022-12-06T11:54:29.765Z,7.35
2022-12-06T11:57:03.133Z,7.65
2022-12-06T11:59:32.712Z,7.38
2022-12-06T12:02:02.635Z,7.55
2022-12-06T12:04:36.407Z,8.00
2022-12-06T12:07:06.580Z,7.47
2022-12-06T12:09:37.358Z,7.32
2022-12-06T12:12:08.331Z,8.68
2022-12-06T12:14:44.110Z,8.57
2022-12-06T12:17:18.328Z,7.20
2022-12-06T12:19:48.627Z,7.68
2022-12-06T12:22:22.404Z,7.20
2022-12-06T12:27:49.095Z,6.95
2022-12-06T12:30:22.389Z,7.75
2022-12-06T12:32:51.605Z,7.95
2022-12-06T12:35:28.015Z,6.97
2022-12-06T12:37:58.458Z,6.75
2022-12-06T12:40:28.182Z,6.82
2022-12-06T12:43:02.005Z,5.90
2022-12-06T12:45:30.617Z,6.53
2022-12-06T12:47:59.885Z,6.18
2022-12-06T12:50:28.462Z,6.35
2022-12-06T12:52:57.192Z,5.78
2022-12-06T12:55:26.697Z,6.00
2022-12-06T12:57:55.672Z,5.10
2022-12-06T13:00:27.373Z,4.05
2022-12-06T13:02:57.825Z,4.30
2022-12-06T13:05:33.756Z,4.38
2022-12-06T13:08:07.057Z,4.13
2022-12-06T13:10:36.736Z,5.07
2022-12-06T13:13:06.783Z,4.40
2022-12-06T13:15:38.633Z,5.18
2022-12-06T13:18:12.494Z,4.30
2022-12-06T13:20:42.111Z,4.07
2022-12-06T13:23:13.344Z,4.82
2022-12-06T13:25:41.822Z,4.68
2022-12-06T13:28:16.923Z,4.60
2022-12-06T13:30:47.745Z,4.32
2022-12-06T13:33:21.327Z,4.20
2022-12-06T13:35:53.171Z,4.50
2022-12-06T13:38:27.121Z,3.88
2022-12-06T13:40:56.751Z,4.45
2022-12-06T13:43:57.972Z,4.65
2022-12-06T13:46:29.404Z,4.60
2022-12-06T13:48:58.439Z,4.20
2022-12-06T13:51:45.418Z,4.22
2022-12-06T13:54:30.258Z,4.22
2022-12-06T13:56:59.723Z,3.85
2022-12-06T13:59:45.896Z,4.50
2022-12-06T14:02:32.761Z,4.45
2022-12-06T14:05:03.027Z,4.40
2022-12-06T14:07:34.203Z,4.63
2022-12-06T14:10:09.061Z,4.50
2022-12-06T14:12:37.405Z,5.20
2022-12-06T14:15:07.187Z,5.85
2022-12-06T14:20:30.974Z,4.28
2022-12-06T14:22:59.330Z,4.10
2022-12-06T14:25:28.750Z,4.57
2022-12-06T14:28:03.407Z,4.40
2022-12-06T14:30:31.857Z,4.50
2022-12-06T14:33:00.899Z,4.55
2022-12-06T14:35:35.245Z,4.40
2022-12-06T14:38:06.065Z,4.50
2022-12-06T14:40:58.355Z,4.40
2022-12-06T14:43:27.008Z,4.88
2022-12-06T14:45:55.933Z,5.18
2022-12-06T14:48:24.434Z,4.22
2022-12-06T14:51:00.429Z,4.10
2022-12-06T14:53:30.802Z,4.65
2022-12-06T14:55:59.896Z,4.35
2022-12-06T14:58:29.251Z,4.60
2022-12-06T15:01:01.936Z,4.05
2022-12-06T15:03:32.553Z,4.30
2022-12-06T15:06:16.815Z,4.10
2022-12-06T15:08:49.252Z,4.18
2022-12-06T15:11:54.319Z,4.88
2022-12-06T15:14:23.636Z,4.70
2022-12-06T15:16:59.573Z,4.68
2022-12-06T15:19:28.039Z,4.60
2022-12-06T15:21:57.754Z,4.75
2022-12-06T15:24:26.921Z,4.47
2022-12-06T15:26:56.026Z,4.68
2022-12-06T15:29:24.497Z,5.07
2022-12-06T15:31:54.409Z,4.93
2022-12-06T15:34:24.635Z,5.18
2022-12-06T15:37:15.189Z,5.22
2022-12-06T15:39:43.083Z,5.35
2022-12-06T15:42:14.360Z,5.18
2022-12-06T15:44:47.351Z,5.10
2022-12-06T15:47:17.535Z,5.30
2022-12-06T15:49:45.868Z,4.78
2022-12-06T15:52:17.285Z,5.57
2022-12-06T15:54:47.331Z,5.18
2022-12-06T15:57:15.971Z,5.07
2022-12-06T15:59:44.282Z,5.82
2022-12-06T16:02:15.901Z,5.13
2022-12-06T16:04:44.727Z,5.35
2022-12-06T16:07:18.877Z,5.43
2022-12-06T16:09:49.018Z,5.03
2022-12-06T16:12:17.537Z,5.88
2022-12-06T16:14:46.214Z,6.18
2022-12-06T16:17:14.578Z,6.55
2022-12-06T16:20:00.622Z,5.10
2022-12-06T16:22:42.880Z,5.82
2022-12-06T16:25:12.714Z,5.78
2022-12-06T16:27:41.095Z,6.50
2022-12-06T16:30:10.162Z,5.53
2022-12-06T16:32:38.514Z,5.72
2022-12-06T16:35:07.049Z,6.53
2022-12-06T16:37:35.383Z,5.95
2022-12-06T16:40:03.767Z,6.55
2022-12-06T16:42:33.454Z,6.13
2022-12-06T16:45:02.120Z,6.20
2022-12-06T16:47:31.666Z,6.18
2022-12-06T16:50:00.007Z,6.32
2022-12-06T16:52:28.544Z,6.60
2022-12-06T16:54:56.903Z,7.00
2022-12-06T16:57:25.262Z,7.40
2022-12-06T16:59:55.431Z,7.20
2022-12-06T17:02:27.775Z,7.40
2022-12-06T17:04:56.403Z,8.18
2022-12-06T17:07:24.757Z,8.88
2022-12-06T17:09:53.132Z,6.60
2022-12-06T17:12:21.506Z,7.68
2022-12-06T17:14:50.013Z,7.68
2022-12-06T17:17:21.365Z,8.75
2022-12-06T17:19:50.595Z,7.88
2022-12-06T17:22:19.674Z,8.75
2022-12-06T17:24:48.104Z,6.93
2022-12-06T17:27:17.095Z,7.18
2022-12-06T17:29:45.861Z,7.32
2022-12-06T17:32:14.582Z,6.68
2022-12-06T17:34:48.095Z,6.03
2022-12-06T17:37:16.603Z,7.15
2022-12-06T17:39:44.980Z,6.78
2022-12-06T17:42:31.384Z,6.78
2022-12-06T17:45:00.119Z,7.00
2022-12-06T17:47:28.783Z,6.75
2022-12-06T17:49:58.802Z,6.53
2022-12-06T17:52:27.347Z,6.43
2022-12-06T17:54:55.936Z,8.85
2022-12-06T17:57:24.490Z,6.38
2022-12-06T17:59:52.854Z,6.63
2022-12-06T18:02:25.769Z,6.13
2022-12-06T18:04:56.176Z,6.03
2022-12-06T18:07:26.087Z,7.32
2022-12-06T18:09:54.446Z,6.82
2022-12-06T18:12:22.961Z,6.75
2022-12-06T18:14:51.368Z,6.88
2022-12-06T18:17:19.685Z,6.38
2022-12-06T18:19:48.250Z,6.78
2022-12-06T18:22:16.738Z,6.05
2022-12-06T18:24:46.639Z,7.45
2022-12-06T18:27:15.000Z,7.38
2022-12-06T18:29:43.441Z,6.28
2022-12-06T18:32:11.814Z,6.03
2022-12-06T18:34:40.259Z,7.00
2022-12-06T18:37:09.302Z,6.50
2022-12-06T18:39:37.661Z,6.40
2022-12-06T18:42:07.569Z,7.38
2022-12-06T18:44:36.273Z,7.40
2022-12-06T18:47:04.584Z,8.30
2022-12-06T18:49:33.092Z,7.90
2022-12-06T18:52:01.492Z,7.75
2022-12-06T18:54:29.883Z,7.68
2022-12-06T18:56:59.287Z,7.20
2022-12-06T18:59:29.426Z,7.13
2022-12-06T19:01:57.955Z,8.52
2022-12-06T19:04:26.423Z,7.82
2022-12-06T19:06:55.356Z,8.13
2022-12-06T19:09:24.649Z,8.05
2022-12-06T19:11:53.045Z,8.85
2022-12-06T19:14:23.129Z,8.80
2022-12-06T19:16:53.716Z,8.20
2022-12-06T19:19:23.036Z,9.07
2022-12-06T19:21:51.915Z,8.43
2022-12-06T19:24:21.860Z,8.43
2022-12-06T19:26:50.661Z,8.52
2022-12-06T19:29:19.503Z,8.93
2022-12-06T19:31:47.940Z,8.73
2022-12-06T19:34:19.206Z,8.82
2022-12-06T19:36:48.062Z,8.95
2022-12-06T19:39:16.492Z,9.05
2022-12-06T19:41:59.047Z,8.25
2022-12-06T19:44:27.828Z,9.18
2022-12-06T19:46:56.161Z,9.25
2022-12-06T19:49:27.202Z,8.52
2022-12-06T19:51:55.681Z,9.10
2022-12-06T19:54:25.082Z,8.93
2022-12-06T19:56:54.351Z,9.07
2022-12-06T19:59:23.179Z,9.25
2022-12-06T20:01:52.732Z,9.40
2022-12-06T20:04:22.663Z,8.77
2022-12-06T20:06:52.721Z,9.80
2022-12-06T20:09:21.494Z,10.57
2022-12-06T20:12:02.636Z,9.50
2022-12-06T20:14:32.315Z,9.68
2022-12-06T20:17:00.675Z,9.80
2022-12-06T20:19:29.177Z,10.00
2022-12-06T20:21:58.890Z,10.20
2022-12-06T20:24:27.377Z,10.25
2022-12-06T20:26:56.616Z,9.55
2022-12-06T20:29:27.035Z,9.98
2022-12-06T20:31:57.857Z,10.30
2022-12-06T20:34:26.260Z,9.82
2022-12-06T20:36:54.648Z,10.32
2022-12-06T20:39:25.227Z,10.63
2022-12-06T20:41:53.871Z,10.43
2022-12-06T20:44:22.659Z,10.73
2022-12-06T20:46:51.334Z,11.27
2022-12-06T20:49:19.735Z,10.60
2022-12-06T20:51:52.616Z,10.77
2022-12-06T20:54:21.803Z,11.30
2022-12-06T20:56:53.396Z,10.85
2022-12-06T20:59:22.249Z,10.95
2022-12-06T21:01:50.662Z,10.75
2022-12-06T21:04:19.098Z,11.23
2022-12-06T21:06:47.481Z,11.52
2022-12-06T21:09:15.876Z,11.27
2022-12-06T21:11:44.223Z,11.18
2022-12-06T21:14:15.102Z,12.57
2022-12-06T21:16:43.981Z,10.80
2022-12-06T21:19:13.495Z,12.63
2022-12-06T21:21:42.807Z,11.98
2022-12-06T21:24:12.747Z,11.48
2022-12-06T21:26:41.076Z,11.85
2022-12-06T21:29:09.434Z,11.82
2022-12-06T21:31:39.551Z,11.82
2022-12-06T21:34:07.956Z,12.32
2022-12-06T21:36:36.321Z,11.95
2022-12-06T21:39:04.663Z,12.63
2022-12-06T21:41:33.052Z,12.35
2022-12-06T21:44:01.401Z,14.05
2022-12-06T21:46:29.949Z,12.00
2022-12-06T21:49:01.185Z,12.32
2022-12-06T21:51:30.585Z,12.38
2022-12-06T21:53:59.555Z,12.57
2022-12-06T21:56:28.884Z,14.27
2022-12-06T21:58:59.993Z,13.82
2022-12-06T22:01:29.129Z,13.18
2022-12-06T22:03:58.980Z,13.48
2022-12-06T22:06:28.811Z,13.93
2022-12-06T22:08:58.583Z,15.20
2022-12-06T22:11:27.017Z,15.52
2022-12-06T22:13:55.437Z,13.88
2022-12-06T22:16:23.850Z,14.40
2022-12-06T22:18:54.942Z,14.52
2022-12-06T22:21:24.794Z,15.23
2022-12-06T22:23:54.891Z,15.10
2022-12-06T22:26:24.079Z,15.13
2022-12-06T22:28:52.609Z,15.55
2022-12-06T22:31:22.057Z,15.02
2022-12-06T22:33:51.144Z,16.13
2022-12-06T22:36:20.174Z,15.63
2022-12-06T22:38:50.119Z,15.93
2022-12-06T22:41:20.348Z,16.10
2022-12-06T22:43:51.842Z,17.05
2022-12-06T22:46:20.395Z,17.08
2022-12-06T22:48:48.911Z,16.88
2022-12-06T22:51:18.318Z,17.92
2022-12-06T22:53:47.704Z,18.05
2022-12-06T22:56:16.513Z,18.42
2022-12-06T22:58:46.216Z,17.98
2022-12-06T23:01:16.805Z,18.00
2022-12-06T23:03:46.112Z,17.33
2022-12-06T23:06:14.573Z,17.73
2022-12-06T23:08:43.027Z,18.77
2022-12-06T23:11:12.820Z,19.08
2022-12-06T23:13:41.299Z,18.52
2022-12-06T23:16:13.437Z,18.63
2022-12-06T23:18:41.855Z,18.17
2022-12-06T23:21:12.309Z,18.02
2022-12-06T23:23:41.240Z,18.08
2022-12-06T23:26:10.868Z,18.98
2022-12-06T23:28:39.566Z,18.60
2022-12-06T23:31:09.132Z,18.35
2022-12-06T23:33:38.876Z,19.20
2022-12-06T23:36:08.192Z,18.85
2022-12-06T23:38:36.863Z,19.42
2022-12-06T23:41:05.804Z,17.98
2022-12-06T23:43:34.174Z,18.83
2022-12-06T23:46:07.469Z,18.33
2022-12-06T23:48:36.660Z,18.60
2022-12-06T23:51:07.684Z,19.15
2022-12-06T23:53:36.264Z,17.85
2022-12-06T23:56:06.634Z,18.45
2022-12-06T23:58:36.505Z,18.42
